sensor_id;sensor_type;location;lat;lon;timestamp;temperature;humidity
20670;DHT22;10494;50.868;4.180;2022-07-23T00:01:20;16.10;99.90
20670;DHT22;10494;50.868;4.180;2022-07-23T00:03:46;16.10;99.90
20670;DHT22;10494;50.868;4.180;2022-07-23T00:06:11;16.10;99.90
20670;DHT22;10494;50.868;4.180;2022-07-23T00:08:37;16.10;99.90
20670;DHT22;10494;50.868;4.180;2022-07-23T00:11:02;16.10;99.90
20670;DHT22;10494;50.868;4.180;2022-07-23T00:13:28;16.00;99.90
20670;DHT22;10494;50.868;4.180;2022-07-23T00:15:54;16.10;99.90
20670;DHT22;10494;50.868;4.180;2022-07-23T00:18:20;16.10;99.90
20670;DHT22;10494;50.868;4.180;2022-07-23T00:20:46;16.10;99.90
20670;DHT22;10494;50.868;4.180;2022-07-23T00:23:11;16.10;99.90
20670;DHT22;10494;50.868;4.180;2022-07-23T00:25:37;16.10;99.90
20670;DHT22;10494;50.868;4.180;2022-07-23T00:28:03;16.10;99.90
20670;DHT22;10494;50.868;4.180;2022-07-23T00:30:30;16.10;99.90
20670;DHT22;10494;50.868;4.180;2022-07-23T00:32:59;16.10;99.90
20670;DHT22;10494;50.868;4.180;2022-07-23T00:35:27;16.10;99.90
20670;DHT22;10494;50.868;4.180;2022-07-23T00:37:54;16.10;99.90
20670;DHT22;10494;50.868;4.180;2022-07-23T00:40:20;16.10;99.90
20670;DHT22;10494;50.868;4.180;2022-07-23T00:42:45;16.10;99.90
20670;DHT22;10494;50.868;4.180;2022-07-23T00:45:11;16.10;99.90
20670;DHT22;10494;50.868;4.180;2022-07-23T00:47:37;16.10;99.90
20670;DHT22;10494;50.868;4.180;2022-07-23T00:50:04;16.10;99.90
20670;DHT22;10494;50.868;4.180;2022-07-23T00:52:30;16.00;99.90
20670;DHT22;10494;50.868;4.180;2022-07-23T00:54:57;16.00;99.90
20670;DHT22;10494;50.868;4.180;2022-07-23T00:57:22;15.90;99.90
20670;DHT22;10494;50.868;4.180;2022-07-23T00:59:48;15.90;99.90
20670;DHT22;10494;50.868;4.180;2022-07-23T01:02:14;15.90;99.90
20670;DHT22;10494;50.868;4.180;2022-07-23T01:04:39;15.90;99.90
20670;DHT22;10494;50.868;4.180;2022-07-23T01:07:05;15.90;99.90
20670;DHT22;10494;50.868;4.180;2022-07-23T01:09:32;15.90;99.90
20670;DHT22;10494;50.868;4.180;2022-07-23T01:11:58;15.80;99.90
20670;DHT22;10494;50.868;4.180;2022-07-23T01:14:24;15.90;99.90
20670;DHT22;10494;50.868;4.180;2022-07-23T01:16:50;15.90;99.90
20670;DHT22;10494;50.868;4.180;2022-07-23T01:19:16;15.80;99.90
20670;DHT22;10494;50.868;4.180;2022-07-23T01:21:46;15.90;99.90
20670;DHT22;10494;50.868;4.180;2022-07-23T01:24:12;15.90;99.90
20670;DHT22;10494;50.868;4.180;2022-07-23T01:26:40;15.90;99.90
20670;DHT22;10494;50.868;4.180;2022-07-23T01:29:06;15.90;99.90
20670;DHT22;10494;50.868;4.180;2022-07-23T01:31:32;15.90;99.90
20670;DHT22;10494;50.868;4.180;2022-07-23T01:33:58;15.90;99.90
20670;DHT22;10494;50.868;4.180;2022-07-23T01:36:24;15.90;99.90
20670;DHT22;10494;50.868;4.180;2022-07-23T01:38:50;15.90;99.90
20670;DHT22;10494;50.868;4.180;2022-07-23T01:41:16;15.90;99.90
20670;DHT22;10494;50.868;4.180;2022-07-23T01:43:41;15.90;99.90
20670;DHT22;10494;50.868;4.180;2022-07-23T01:46:07;15.90;99.90
20670;DHT22;10494;50.868;4.180;2022-07-23T01:48:33;15.90;99.90
20670;DHT22;10494;50.868;4.180;2022-07-23T01:50:58;15.90;99.90
20670;DHT22;10494;50.868;4.180;2022-07-23T01:53:24;15.90;99.90
20670;DHT22;10494;50.868;4.180;2022-07-23T01:55:50;15.90;99.90
20670;DHT22;10494;50.868;4.180;2022-07-23T01:58:15;15.90;99.90
20670;DHT22;10494;50.868;4.180;2022-07-23T02:00:41;15.90;99.90
20670;DHT22;10494;50.868;4.180;2022-07-23T02:03:06;15.80;99.90
20670;DHT22;10494;50.868;4.180;2022-07-23T02:05:32;15.80;99.90
20670;DHT22;10494;50.868;4.180;2022-07-23T02:07:59;15.80;99.90
20670;DHT22;10494;50.868;4.180;2022-07-23T02:10:25;15.80;99.90
20670;DHT22;10494;50.868;4.180;2022-07-23T02:12:51;15.70;99.90
20670;DHT22;10494;50.868;4.180;2022-07-23T02:15:17;15.70;99.90
20670;DHT22;10494;50.868;4.180;2022-07-23T02:17:42;15.80;99.90
20670;DHT22;10494;50.868;4.180;2022-07-23T02:20:09;15.70;99.90
20670;DHT22;10494;50.868;4.180;2022-07-23T02:22:35;15.70;99.90
20670;DHT22;10494;50.868;4.180;2022-07-23T02:25:02;15.70;99.90
20670;DHT22;10494;50.868;4.180;2022-07-23T02:27:27;15.70;99.90
20670;DHT22;10494;50.868;4.180;2022-07-23T02:29:53;15.60;99.90
20670;DHT22;10494;50.868;4.180;2022-07-23T02:32:19;15.60;99.90
20670;DHT22;10494;50.868;4.180;2022-07-23T02:34:46;15.50;99.90
20670;DHT22;10494;50.868;4.180;2022-07-23T02:37:12;15.50;99.90
20670;DHT22;10494;50.868;4.180;2022-07-23T02:39:38;15.50;99.90
20670;DHT22;10494;50.868;4.180;2022-07-23T02:42:04;15.50;99.90
20670;DHT22;10494;50.868;4.180;2022-07-23T02:44:29;15.40;99.90
20670;DHT22;10494;50.868;4.180;2022-07-23T02:46:55;15.40;99.90
20670;DHT22;10494;50.868;4.180;2022-07-23T02:49:21;15.40;99.90
20670;DHT22;10494;50.868;4.180;2022-07-23T02:51:47;15.30;99.90
20670;DHT22;10494;50.868;4.180;2022-07-23T02:54:12;15.30;99.90
20670;DHT22;10494;50.868;4.180;2022-07-23T02:56:38;15.40;99.90
20670;DHT22;10494;50.868;4.180;2022-07-23T02:59:03;15.30;99.90
20670;DHT22;10494;50.868;4.180;2022-07-23T03:01:29;15.30;99.90
20670;DHT22;10494;50.868;4.180;2022-07-23T03:03:55;15.30;99.90
20670;DHT22;10494;50.868;4.180;2022-07-23T03:06:20;15.30;99.90
20670;DHT22;10494;50.868;4.180;2022-07-23T03:08:46;15.30;99.90
20670;DHT22;10494;50.868;4.180;2022-07-23T03:11:11;15.30;99.90
20670;DHT22;10494;50.868;4.180;2022-07-23T03:13:38;15.30;99.90
20670;DHT22;10494;50.868;4.180;2022-07-23T03:16:04;15.30;99.90
20670;DHT22;10494;50.868;4.180;2022-07-23T03:18:30;15.20;99.90
20670;DHT22;10494;50.868;4.180;2022-07-23T03:20:55;15.20;99.90
20670;DHT22;10494;50.868;4.180;2022-07-23T03:23:21;15.10;99.90
20670;DHT22;10494;50.868;4.180;2022-07-23T03:25:47;15.00;99.90
20670;DHT22;10494;50.868;4.180;2022-07-23T03:28:16;15.00;99.90
20670;DHT22;10494;50.868;4.180;2022-07-23T03:30:43;15.00;99.90
20670;DHT22;10494;50.868;4.180;2022-07-23T03:33:08;15.00;99.90
20670;DHT22;10494;50.868;4.180;2022-07-23T03:35:34;15.00;99.90
20670;DHT22;10494;50.868;4.180;2022-07-23T03:37:59;15.00;99.90
20670;DHT22;10494;50.868;4.180;2022-07-23T03:40:25;15.00;99.90
20670;DHT22;10494;50.868;4.180;2022-07-23T03:42:51;14.90;99.90
20670;DHT22;10494;50.868;4.180;2022-07-23T03:45:17;14.90;99.90
20670;DHT22;10494;50.868;4.180;2022-07-23T03:47:42;14.90;99.90
20670;DHT22;10494;50.868;4.180;2022-07-23T03:50:10;14.90;99.90
20670;DHT22;10494;50.868;4.180;2022-07-23T03:52:36;14.90;99.90
20670;DHT22;10494;50.868;4.180;2022-07-23T03:55:02;15.00;99.90
20670;DHT22;10494;50.868;4.180;2022-07-23T03:57:29;15.00;99.90
20670;DHT22;10494;50.868;4.180;2022-07-23T03:59:54;15.00;99.90
20670;DHT22;10494;50.868;4.180;2022-07-23T04:02:20;15.00;99.90
20670;DHT22;10494;50.868;4.180;2022-07-23T04:04:46;15.10;99.90
20670;DHT22;10494;50.868;4.180;2022-07-23T04:07:12;15.00;99.90
20670;DHT22;10494;50.868;4.180;2022-07-23T04:09:38;15.00;99.90
20670;DHT22;10494;50.868;4.180;2022-07-23T04:12:06;15.00;99.90
20670;DHT22;10494;50.868;4.180;2022-07-23T04:14:32;15.00;99.90
20670;DHT22;10494;50.868;4.180;2022-07-23T04:16:57;15.00;99.90
20670;DHT22;10494;50.868;4.180;2022-07-23T04:19:23;14.90;99.90
20670;DHT22;10494;50.868;4.180;2022-07-23T04:21:49;14.90;99.90
20670;DHT22;10494;50.868;4.180;2022-07-23T04:24:14;15.00;99.90
20670;DHT22;10494;50.868;4.180;2022-07-23T04:26:40;15.00;99.90
20670;DHT22;10494;50.868;4.180;2022-07-23T04:29:05;15.00;99.90
20670;DHT22;10494;50.868;4.180;2022-07-23T04:31:31;15.00;99.90
20670;DHT22;10494;50.868;4.180;2022-07-23T04:33:56;15.00;99.90
20670;DHT22;10494;50.868;4.180;2022-07-23T04:36:22;15.00;99.90
20670;DHT22;10494;50.868;4.180;2022-07-23T04:38:48;15.00;99.90
20670;DHT22;10494;50.868;4.180;2022-07-23T04:41:13;15.00;99.90
20670;DHT22;10494;50.868;4.180;2022-07-23T04:43:39;15.10;99.90
20670;DHT22;10494;50.868;4.180;2022-07-23T04:46:05;15.10;99.90
20670;DHT22;10494;50.868;4.180;2022-07-23T04:48:31;15.20;99.90
20670;DHT22;10494;50.868;4.180;2022-07-23T04:50:57;15.30;99.90
20670;DHT22;10494;50.868;4.180;2022-07-23T04:53:22;15.40;99.90
20670;DHT22;10494;50.868;4.180;2022-07-23T04:55:48;15.60;99.90
20670;DHT22;10494;50.868;4.180;2022-07-23T04:58:14;15.70;99.90
20670;DHT22;10494;50.868;4.180;2022-07-23T05:00:39;15.90;99.90
20670;DHT22;10494;50.868;4.180;2022-07-23T05:03:05;16.10;99.90
20670;DHT22;10494;50.868;4.180;2022-07-23T05:05:30;16.20;99.90
20670;DHT22;10494;50.868;4.180;2022-07-23T05:07:56;16.30;99.90
20670;DHT22;10494;50.868;4.180;2022-07-23T05:10:22;16.50;99.90
20670;DHT22;10494;50.868;4.180;2022-07-23T05:12:47;16.50;99.90
20670;DHT22;10494;50.868;4.180;2022-07-23T05:15:13;16.70;99.90
20670;DHT22;10494;50.868;4.180;2022-07-23T05:17:38;16.70;99.90
20670;DHT22;10494;50.868;4.180;2022-07-23T05:20:04;16.80;99.90
20670;DHT22;10494;50.868;4.180;2022-07-23T05:22:30;16.90;99.90
20670;DHT22;10494;50.868;4.180;2022-07-23T05:24:56;16.90;99.90
20670;DHT22;10494;50.868;4.180;2022-07-23T05:27:21;16.70;99.90
20670;DHT22;10494;50.868;4.180;2022-07-23T05:29:47;16.50;99.90
20670;DHT22;10494;50.868;4.180;2022-07-23T05:32:12;16.50;99.90
20670;DHT22;10494;50.868;4.180;2022-07-23T05:34:38;16.50;99.90
20670;DHT22;10494;50.868;4.180;2022-07-23T05:37:04;16.60;99.90
20670;DHT22;10494;50.868;4.180;2022-07-23T05:39:30;16.50;99.90
20670;DHT22;10494;50.868;4.180;2022-07-23T05:41:56;16.50;99.90
20670;DHT22;10494;50.868;4.180;2022-07-23T05:44:21;16.50;99.90
20670;DHT22;10494;50.868;4.180;2022-07-23T05:46:47;16.50;99.90
20670;DHT22;10494;50.868;4.180;2022-07-23T05:49:13;16.50;99.90
20670;DHT22;10494;50.868;4.180;2022-07-23T05:51:38;16.50;99.90
20670;DHT22;10494;50.868;4.180;2022-07-23T05:54:04;16.50;99.90
20670;DHT22;10494;50.868;4.180;2022-07-23T05:56:30;16.60;99.90
20670;DHT22;10494;50.868;4.180;2022-07-23T05:58:55;16.70;99.90
20670;DHT22;10494;50.868;4.180;2022-07-23T06:01:21;16.80;99.90
20670;DHT22;10494;50.868;4.180;2022-07-23T06:03:46;16.90;99.90
20670;DHT22;10494;50.868;4.180;2022-07-23T06:06:12;16.80;99.90
20670;DHT22;10494;50.868;4.180;2022-07-23T06:08:38;17.00;99.90
20670;DHT22;10494;50.868;4.180;2022-07-23T06:11:04;17.00;99.90
20670;DHT22;10494;50.868;4.180;2022-07-23T06:13:29;17.10;99.90
20670;DHT22;10494;50.868;4.180;2022-07-23T06:15:55;17.30;99.90
20670;DHT22;10494;50.868;4.180;2022-07-23T06:18:21;17.50;99.90
20670;DHT22;10494;50.868;4.180;2022-07-23T06:20:46;17.70;99.90
20670;DHT22;10494;50.868;4.180;2022-07-23T06:23:12;17.90;99.90
20670;DHT22;10494;50.868;4.180;2022-07-23T06:25:38;17.80;99.90
20670;DHT22;10494;50.868;4.180;2022-07-23T06:28:04;17.90;99.90
20670;DHT22;10494;50.868;4.180;2022-07-23T06:30:29;18.00;99.90
20670;DHT22;10494;50.868;4.180;2022-07-23T06:32:56;18.20;99.90
20670;DHT22;10494;50.868;4.180;2022-07-23T06:35:21;18.40;99.90
20670;DHT22;10494;50.868;4.180;2022-07-23T06:37:48;18.30;99.90
20670;DHT22;10494;50.868;4.180;2022-07-23T06:40:13;18.40;99.90
20670;DHT22;10494;50.868;4.180;2022-07-23T06:42:39;18.50;99.90
20670;DHT22;10494;50.868;4.180;2022-07-23T06:45:06;18.70;99.90
20670;DHT22;10494;50.868;4.180;2022-07-23T06:47:32;18.60;99.90
20670;DHT22;10494;50.868;4.180;2022-07-23T06:49:58;18.40;99.90
20670;DHT22;10494;50.868;4.180;2022-07-23T06:52:23;18.60;99.90
20670;DHT22;10494;50.868;4.180;2022-07-23T06:54:49;18.50;99.90
20670;DHT22;10494;50.868;4.180;2022-07-23T06:57:15;18.40;99.90
20670;DHT22;10494;50.868;4.180;2022-07-23T06:59:41;18.60;99.90
20670;DHT22;10494;50.868;4.180;2022-07-23T07:02:07;18.90;99.90
20670;DHT22;10494;50.868;4.180;2022-07-23T07:04:33;18.60;99.90
20670;DHT22;10494;50.868;4.180;2022-07-23T07:06:59;18.30;99.90
20670;DHT22;10494;50.868;4.180;2022-07-23T07:09:25;18.30;99.90
20670;DHT22;10494;50.868;4.180;2022-07-23T07:11:51;18.80;99.90
20670;DHT22;10494;50.868;4.180;2022-07-23T07:14:16;19.40;99.90
20670;DHT22;10494;50.868;4.180;2022-07-23T07:16:42;20.00;99.90
20670;DHT22;10494;50.868;4.180;2022-07-23T07:19:08;20.50;99.90
20670;DHT22;10494;50.868;4.180;2022-07-23T07:21:33;21.30;99.90
20670;DHT22;10494;50.868;4.180;2022-07-23T07:23:59;21.40;99.90
20670;DHT22;10494;50.868;4.180;2022-07-23T07:26:24;20.90;99.90
20670;DHT22;10494;50.868;4.180;2022-07-23T07:28:51;21.10;99.90
20670;DHT22;10494;50.868;4.180;2022-07-23T07:31:16;21.90;99.90
20670;DHT22;10494;50.868;4.180;2022-07-23T07:33:42;22.50;99.90
20670;DHT22;10494;50.868;4.180;2022-07-23T07:36:08;23.20;99.90
20670;DHT22;10494;50.868;4.180;2022-07-23T07:38:34;23.40;99.90
20670;DHT22;10494;50.868;4.180;2022-07-23T07:40:59;24.30;99.90
20670;DHT22;10494;50.868;4.180;2022-07-23T07:43:25;25.00;99.90
20670;DHT22;10494;50.868;4.180;2022-07-23T07:45:51;26.20;99.90
20670;DHT22;10494;50.868;4.180;2022-07-23T07:48:16;27.10;99.90
20670;DHT22;10494;50.868;4.180;2022-07-23T07:50:42;27.30;99.90
20670;DHT22;10494;50.868;4.180;2022-07-23T07:53:07;27.60;99.90
20670;DHT22;10494;50.868;4.180;2022-07-23T07:55:34;29.20;99.90
20670;DHT22;10494;50.868;4.180;2022-07-23T07:58:00;30.70;99.90
20670;DHT22;10494;50.868;4.180;2022-07-23T08:00:26;31.50;99.90
20670;DHT22;10494;50.868;4.180;2022-07-23T08:02:53;32.00;99.90
20670;DHT22;10494;50.868;4.180;2022-07-23T08:05:20;31.90;99.90
20670;DHT22;10494;50.868;4.180;2022-07-23T08:07:46;31.50;98.10
20670;DHT22;10494;50.868;4.180;2022-07-23T08:10:12;30.30;99.90
20670;DHT22;10494;50.868;4.180;2022-07-23T08:12:46;30.10;99.90
20670;DHT22;10494;50.868;4.180;2022-07-23T08:15:14;28.70;99.90
20670;DHT22;10494;50.868;4.180;2022-07-23T08:17:41;29.90;99.90
20670;DHT22;10494;50.868;4.180;2022-07-23T08:20:08;28.30;99.90
20670;DHT22;10494;50.868;4.180;2022-07-23T08:22:45;27.60;99.90
20670;DHT22;10494;50.868;4.180;2022-07-23T08:25:11;29.30;99.90
20670;DHT22;10494;50.868;4.180;2022-07-23T08:27:37;31.20;99.90
20670;DHT22;10494;50.868;4.180;2022-07-23T08:30:03;32.90;95.70
20670;DHT22;10494;50.868;4.180;2022-07-23T08:32:29;34.20;90.00
20670;DHT22;10494;50.868;4.180;2022-07-23T08:34:54;34.60;82.10
20670;DHT22;10494;50.868;4.180;2022-07-23T08:37:20;35.00;79.20
20670;DHT22;10494;50.868;4.180;2022-07-23T08:39:45;34.60;75.80
20670;DHT22;10494;50.868;4.180;2022-07-23T08:42:13;35.10;73.30
20670;DHT22;10494;50.868;4.180;2022-07-23T08:44:44;34.70;74.30
20670;DHT22;10494;50.868;4.180;2022-07-23T08:47:11;33.80;70.60
20670;DHT22;10494;50.868;4.180;2022-07-23T08:49:38;29.60;85.20
20670;DHT22;10494;50.868;4.180;2022-07-23T08:52:04;29.90;90.00
20670;DHT22;10494;50.868;4.180;2022-07-23T08:54:31;30.60;90.30
20670;DHT22;10494;50.868;4.180;2022-07-23T08:56:57;31.30;85.70
20670;DHT22;10494;50.868;4.180;2022-07-23T08:59:22;32.20;83.70
20670;DHT22;10494;50.868;4.180;2022-07-23T09:01:48;33.40;79.30
20670;DHT22;10494;50.868;4.180;2022-07-23T09:04:13;33.30;75.30
20670;DHT22;10494;50.868;4.180;2022-07-23T09:06:39;33.80;75.40
20670;DHT22;10494;50.868;4.180;2022-07-23T09:09:21;34.00;72.80
20670;DHT22;10494;50.868;4.180;2022-07-23T09:11:48;33.30;72.10
20670;DHT22;10494;50.868;4.180;2022-07-23T09:14:43;33.30;75.20
20670;DHT22;10494;50.868;4.180;2022-07-23T09:17:16;34.00;72.40
20670;DHT22;10494;50.868;4.180;2022-07-23T09:19:43;30.10;82.90
20670;DHT22;10494;50.868;4.180;2022-07-23T09:22:22;28.20;92.00
20670;DHT22;10494;50.868;4.180;2022-07-23T09:30:16;31.20;88.40
20670;DHT22;10494;50.868;4.180;2022-07-23T09:32:42;32.30;85.50
20670;DHT22;10494;50.868;4.180;2022-07-23T09:35:08;33.40;79.30
20670;DHT22;10494;50.868;4.180;2022-07-23T09:37:34;33.90;75.10
20670;DHT22;10494;50.868;4.180;2022-07-23T09:40:09;33.40;69.50
20670;DHT22;10494;50.868;4.180;2022-07-23T09:42:35;33.20;75.40
20670;DHT22;10494;50.868;4.180;2022-07-23T09:45:02;34.00;74.50
20670;DHT22;10494;50.868;4.180;2022-07-23T09:47:30;34.50;69.70
20670;DHT22;10494;50.868;4.180;2022-07-23T09:50:09;34.70;68.00
20670;DHT22;10494;50.868;4.180;2022-07-23T09:52:47;33.40;67.50
20670;DHT22;10494;50.868;4.180;2022-07-23T09:55:15;33.20;68.30
20670;DHT22;10494;50.868;4.180;2022-07-23T09:57:41;33.50;68.70
20670;DHT22;10494;50.868;4.180;2022-07-23T10:00:12;33.50;68.70
20670;DHT22;10494;50.868;4.180;2022-07-23T10:02:38;32.60;67.70
20670;DHT22;10494;50.868;4.180;2022-07-23T10:05:05;29.00;79.80
20670;DHT22;10494;50.868;4.180;2022-07-23T10:07:36;28.80;88.10
20670;DHT22;10494;50.868;4.180;2022-07-23T10:10:04;29.60;86.20
20670;DHT22;10494;50.868;4.180;2022-07-23T10:12:29;29.50;86.40
20670;DHT22;10494;50.868;4.180;2022-07-23T10:15:14;30.60;84.80
20670;DHT22;10494;50.868;4.180;2022-07-23T10:17:39;28.60;87.90
20670;DHT22;10494;50.868;4.180;2022-07-23T10:20:05;28.80;90.00
20670;DHT22;10494;50.868;4.180;2022-07-23T10:22:35;27.60;91.20
20670;DHT22;10494;50.868;4.180;2022-07-23T10:25:10;26.80;94.80
20670;DHT22;10494;50.868;4.180;2022-07-23T10:30:20;26.70;97.30
20670;DHT22;10494;50.868;4.180;2022-07-23T10:35:36;27.30;98.00
20670;DHT22;10494;50.868;4.180;2022-07-23T10:41:00;29.30;94.70
20670;DHT22;10494;50.868;4.180;2022-07-23T10:43:26;30.10;92.50
20670;DHT22;10494;50.868;4.180;2022-07-23T10:45:53;30.50;88.20
20670;DHT22;10494;50.868;4.180;2022-07-23T10:59:20;31.70;80.90
20670;DHT22;10494;50.868;4.180;2022-07-23T11:01:46;31.40;75.70
20670;DHT22;10494;50.868;4.180;2022-07-23T11:04:12;31.40;79.40
20670;DHT22;10494;50.868;4.180;2022-07-23T11:09:32;30.80;76.90
20670;DHT22;10494;50.868;4.180;2022-07-23T11:15:09;28.90;81.50
20670;DHT22;10494;50.868;4.180;2022-07-23T11:17:58;29.10;79.00
20670;DHT22;10494;50.868;4.180;2022-07-23T11:20:25;28.80;80.90
20670;DHT22;10494;50.868;4.180;2022-07-23T11:22:54;28.30;82.70
20670;DHT22;10494;50.868;4.180;2022-07-23T11:28:09;27.00;88.60
20670;DHT22;10494;50.868;4.180;2022-07-23T11:30:38;26.40;92.00
20670;DHT22;10494;50.868;4.180;2022-07-23T11:35:35;27.80;93.00
20670;DHT22;10494;50.868;4.180;2022-07-23T11:38:14;28.40;91.80
20670;DHT22;10494;50.868;4.180;2022-07-23T11:40:43;27.70;91.00
20670;DHT22;10494;50.868;4.180;2022-07-23T11:43:10;28.30;91.70
20670;DHT22;10494;50.868;4.180;2022-07-23T11:45:41;28.40;91.20
20670;DHT22;10494;50.868;4.180;2022-07-23T11:48:23;28.50;91.40
20670;DHT22;10494;50.868;4.180;2022-07-23T11:50:50;28.80;91.20
20670;DHT22;10494;50.868;4.180;2022-07-23T11:53:26;29.00;89.90
20670;DHT22;10494;50.868;4.180;2022-07-23T11:55:52;29.20;90.10
20670;DHT22;10494;50.868;4.180;2022-07-23T11:58:18;29.20;87.30
20670;DHT22;10494;50.868;4.180;2022-07-23T12:00:44;28.70;87.70
20670;DHT22;10494;50.868;4.180;2022-07-23T12:03:10;28.10;90.50
20670;DHT22;10494;50.868;4.180;2022-07-23T12:05:37;27.40;91.80
20670;DHT22;10494;50.868;4.180;2022-07-23T12:08:05;27.80;92.20
20670;DHT22;10494;50.868;4.180;2022-07-23T12:10:43;27.80;92.60
20670;DHT22;10494;50.868;4.180;2022-07-23T12:13:11;28.10;92.20
20670;DHT22;10494;50.868;4.180;2022-07-23T12:15:46;28.50;91.20
20670;DHT22;10494;50.868;4.180;2022-07-23T12:18:15;28.70;90.10
20670;DHT22;10494;50.868;4.180;2022-07-23T12:20:44;28.50;90.60
20670;DHT22;10494;50.868;4.180;2022-07-23T12:23:12;28.10;88.70
20670;DHT22;10494;50.868;4.180;2022-07-23T12:25:40;27.50;90.80
20670;DHT22;10494;50.868;4.180;2022-07-23T12:30:37;27.80;91.60
20670;DHT22;10494;50.868;4.180;2022-07-23T12:33:03;27.70;91.40
20670;DHT22;10494;50.868;4.180;2022-07-23T12:35:48;27.30;91.60
20670;DHT22;10494;50.868;4.180;2022-07-23T12:38:20;27.60;93.50
20670;DHT22;10494;50.868;4.180;2022-07-23T12:40:52;28.00;93.70
20670;DHT22;10494;50.868;4.180;2022-07-23T12:45:51;28.80;90.60
20670;DHT22;10494;50.868;4.180;2022-07-23T12:50:53;28.20;91.00
20670;DHT22;10494;50.868;4.180;2022-07-23T12:53:37;28.20;91.70
20670;DHT22;10494;50.868;4.180;2022-07-23T13:04:08;27.80;91.10
20670;DHT22;10494;50.868;4.180;2022-07-23T13:06:54;27.60;92.40
20670;DHT22;10494;50.868;4.180;2022-07-23T13:09:23;28.20;92.80
20670;DHT22;10494;50.868;4.180;2022-07-23T13:11:50;28.60;92.20
20670;DHT22;10494;50.868;4.180;2022-07-23T13:14:18;28.80;91.10
20670;DHT22;10494;50.868;4.180;2022-07-23T13:16:46;28.50;90.30
20670;DHT22;10494;50.868;4.180;2022-07-23T13:19:12;27.30;91.80
20670;DHT22;10494;50.868;4.180;2022-07-23T13:21:39;26.80;93.30
20670;DHT22;10494;50.868;4.180;2022-07-23T13:24:05;27.40;94.50
20670;DHT22;10494;50.868;4.180;2022-07-23T13:26:31;27.90;92.30
20670;DHT22;10494;50.868;4.180;2022-07-23T13:28:57;28.10;91.70
20670;DHT22;10494;50.868;4.180;2022-07-23T13:31:23;28.60;91.20
20670;DHT22;10494;50.868;4.180;2022-07-23T13:33:49;28.70;90.40
20670;DHT22;10494;50.868;4.180;2022-07-23T13:36:15;28.10;91.80
20670;DHT22;10494;50.868;4.180;2022-07-23T13:38:41;27.50;92.00
20670;DHT22;10494;50.868;4.180;2022-07-23T13:41:06;27.10;93.60
20670;DHT22;10494;50.868;4.180;2022-07-23T13:43:32;27.10;94.00
20670;DHT22;10494;50.868;4.180;2022-07-23T13:45:59;27.00;94.10
20670;DHT22;10494;50.868;4.180;2022-07-23T13:48:24;27.30;94.20
20670;DHT22;10494;50.868;4.180;2022-07-23T13:50:51;27.90;93.20
20670;DHT22;10494;50.868;4.180;2022-07-23T13:53:22;28.40;92.60
20670;DHT22;10494;50.868;4.180;2022-07-23T13:55:51;28.70;91.70
20670;DHT22;10494;50.868;4.180;2022-07-23T13:58:18;28.90;91.40
20670;DHT22;10494;50.868;4.180;2022-07-23T14:00:50;28.90;90.00
20670;DHT22;10494;50.868;4.180;2022-07-23T14:03:17;28.70;90.50
20670;DHT22;10494;50.868;4.180;2022-07-23T14:05:43;28.40;91.20
20670;DHT22;10494;50.868;4.180;2022-07-23T14:08:09;28.40;91.50
20670;DHT22;10494;50.868;4.180;2022-07-23T14:10:35;29.00;91.60
20670;DHT22;10494;50.868;4.180;2022-07-23T14:13:00;29.30;89.80
20670;DHT22;10494;50.868;4.180;2022-07-23T14:15:28;29.10;90.00
20670;DHT22;10494;50.868;4.180;2022-07-23T14:17:54;28.70;90.50
20670;DHT22;10494;50.868;4.180;2022-07-23T14:20:21;28.80;91.90
20670;DHT22;10494;50.868;4.180;2022-07-23T14:22:47;28.80;91.20
20670;DHT22;10494;50.868;4.180;2022-07-23T14:25:12;28.90;92.10
20670;DHT22;10494;50.868;4.180;2022-07-23T14:27:38;28.80;91.70
20670;DHT22;10494;50.868;4.180;2022-07-23T14:30:06;28.60;90.90
20670;DHT22;10494;50.868;4.180;2022-07-23T14:32:32;28.80;91.50
20670;DHT22;10494;50.868;4.180;2022-07-23T14:34:58;29.10;90.60
20670;DHT22;10494;50.868;4.180;2022-07-23T14:37:23;29.30;90.50
20670;DHT22;10494;50.868;4.180;2022-07-23T14:39:50;29.60;89.30
20670;DHT22;10494;50.868;4.180;2022-07-23T14:42:16;29.70;89.10
20670;DHT22;10494;50.868;4.180;2022-07-23T14:44:42;29.70;89.40
20670;DHT22;10494;50.868;4.180;2022-07-23T14:47:08;29.60;88.40
20670;DHT22;10494;50.868;4.180;2022-07-23T14:49:34;29.90;87.30
20670;DHT22;10494;50.868;4.180;2022-07-23T14:52:00;30.00;86.20
20670;DHT22;10494;50.868;4.180;2022-07-23T14:54:27;30.10;85.50
20670;DHT22;10494;50.868;4.180;2022-07-23T14:56:53;30.10;84.90
20670;DHT22;10494;50.868;4.180;2022-07-23T14:59:19;29.80;86.40
20670;DHT22;10494;50.868;4.180;2022-07-23T15:01:45;29.50;87.00
20670;DHT22;10494;50.868;4.180;2022-07-23T15:04:11;29.60;88.00
20670;DHT22;10494;50.868;4.180;2022-07-23T15:06:36;29.70;89.30
20670;DHT22;10494;50.868;4.180;2022-07-23T15:09:03;29.80;89.10
20670;DHT22;10494;50.868;4.180;2022-07-23T15:11:29;29.70;88.90
20670;DHT22;10494;50.868;4.180;2022-07-23T15:14:00;29.90;89.60
20670;DHT22;10494;50.868;4.180;2022-07-23T15:16:25;30.00;87.10
20670;DHT22;10494;50.868;4.180;2022-07-23T15:18:51;30.00;86.20
20670;DHT22;10494;50.868;4.180;2022-07-23T15:21:17;29.40;84.50
20670;DHT22;10494;50.868;4.180;2022-07-23T15:23:42;28.80;87.70
20670;DHT22;10494;50.868;4.180;2022-07-23T15:26:08;28.80;89.20
20670;DHT22;10494;50.868;4.180;2022-07-23T15:28:35;29.20;88.00
20670;DHT22;10494;50.868;4.180;2022-07-23T15:31:00;29.20;88.40
20670;DHT22;10494;50.868;4.180;2022-07-23T15:33:26;29.30;88.40
20670;DHT22;10494;50.868;4.180;2022-07-23T15:35:52;29.60;87.80
20670;DHT22;10494;50.868;4.180;2022-07-23T15:38:20;28.90;87.40
20670;DHT22;10494;50.868;4.180;2022-07-23T15:40:46;28.80;90.10
20670;DHT22;10494;50.868;4.180;2022-07-23T15:43:12;28.60;89.70
20670;DHT22;10494;50.868;4.180;2022-07-23T15:45:39;28.70;89.00
20670;DHT22;10494;50.868;4.180;2022-07-23T15:48:05;29.00;89.50
20670;DHT22;10494;50.868;4.180;2022-07-23T15:50:31;29.20;90.20
20670;DHT22;10494;50.868;4.180;2022-07-23T15:52:57;29.30;87.30
20670;DHT22;10494;50.868;4.180;2022-07-23T15:55:22;29.10;87.70
20670;DHT22;10494;50.868;4.180;2022-07-23T15:57:49;29.20;89.70
20670;DHT22;10494;50.868;4.180;2022-07-23T16:00:15;29.10;89.80
20670;DHT22;10494;50.868;4.180;2022-07-23T16:02:40;29.20;90.30
20670;DHT22;10494;50.868;4.180;2022-07-23T16:05:06;29.30;88.40
20670;DHT22;10494;50.868;4.180;2022-07-23T16:07:50;29.50;88.40
20670;DHT22;10494;50.868;4.180;2022-07-23T16:10:16;29.50;88.00
20670;DHT22;10494;50.868;4.180;2022-07-23T16:12:41;29.40;88.90
20670;DHT22;10494;50.868;4.180;2022-07-23T16:15:07;28.90;90.40
20670;DHT22;10494;50.868;4.180;2022-07-23T16:17:33;28.80;90.70
20670;DHT22;10494;50.868;4.180;2022-07-23T16:19:59;28.80;91.00